Time;durP1;ratioP1;P1;durP2;ratioP2;P2;SDS_P1;SDS_P2;PMS_P1;PMS_P2;Temp;Humidity;BMP_temperature;BMP_pressure;BME280_temperature;BME280_humidity;BME280_pressure;Samples;Min_cycle;Max_cycle;Signal;HPM_P1;HPM_P2
2022/12/02 00:01:41;;;;;;;6.80;6.17;;;4.30;99.90;;;;;;6310848;28;20466;-68
2022/12/02 00:04:45;;;;;;;6.83;6.17;;;4.20;99.90;;;;;;6310786;28;20491;-68
2022/12/02 00:07:50;;;;;;;7.70;6.90;;;4.20;99.90;;;;;;6293367;28;20262;-68
2022/12/02 00:11:03;;;;;;;6.77;6.10;;;4.20;99.90;;;;;;6303874;28;20578;-68
2022/12/02 00:14:20;;;;;;;9.40;6.87;;;4.10;99.90;;;;;;6285730;28;20590;-68
2022/12/02 00:17:26;;;;;;;8.07;7.10;;;4.10;99.90;;;;;;6285967;28;20281;-69
2022/12/02 00:20:31;;;;;;;7.63;6.83;;;4.20;99.90;;;;;;6285735;28;20298;-69
2022/12/02 00:23:36;;;;;;;8.90;6.50;;;4.20;99.90;;;;;;6285827;28;20615;-69
2022/12/02 00:26:40;;;;;;;7.13;6.43;;;4.20;99.90;;;;;;6286120;28;20265;-69
2022/12/02 00:29:45;;;;;;;7.53;6.73;;;4.20;99.90;;;;;;6285455;28;20302;-69
2022/12/02 00:32:51;;;;;;;7.20;6.10;;;4.20;99.90;;;;;;6285997;28;20270;-68
2022/12/02 00:35:57;;;;;;;6.83;6.20;;;4.20;99.90;;;;;;6284175;28;20426;-68
2022/12/02 00:39:02;;;;;;;12.50;6.53;;;4.20;99.90;;;;;;6283854;28;20302;-69
2022/12/02 00:42:07;;;;;;;7.70;6.27;;;4.20;99.90;;;;;;6287888;28;20317;-68
2022/12/02 00:48:37;;;;;;;5.93;5.50;;;4.20;99.90;;;;;;6290398;28;20463;-69
2022/12/02 00:51:43;;;;;;;6.17;5.53;;;4.20;99.90;;;;;;6289563;28;20273;-69
2022/12/02 00:54:49;;;;;;;6.47;5.83;;;4.10;99.90;;;;;;6288792;28;20301;-69
2022/12/02 00:57:54;;;;;;;7.60;5.87;;;4.10;99.90;;;;;;6290805;28;20268;-69
2022/12/02 01:00:59;;;;;;;6.60;5.83;;;4.10;99.90;;;;;;6289661;28;20321;-68
2022/12/02 01:04:05;;;;;;;5.80;5.30;;;4.10;99.90;;;;;;6288856;28;20288;-69
2022/12/02 01:07:13;;;;;;;5.63;5.13;;;4.10;99.90;;;;;;6290287;28;20291;-69
2022/12/02 01:10:18;;;;;;;6.03;5.33;;;4.00;99.90;;;;;;6288695;28;20292;-69
2022/12/02 01:13:26;;;;;;;5.90;5.17;;;4.20;99.90;;;;;;6289560;28;20298;-69
2022/12/02 01:16:31;;;;;;;6.20;5.60;;;4.20;99.90;;;;;;6272025;28;20484;-69
2022/12/02 01:19:38;;;;;;;5.47;5.07;;;4.10;99.90;;;;;;6289172;28;20302;-69
2022/12/02 01:22:42;;;;;;;5.03;4.73;;;4.20;99.90;;;;;;6272348;28;20266;-69
2022/12/02 01:25:48;;;;;;;6.03;5.20;;;4.10;99.90;;;;;;6289608;28;20299;-68
2022/12/02 01:28:52;;;;;;;5.77;5.07;;;4.10;99.90;;;;;;6288028;28;20494;-70
2022/12/02 01:31:57;;;;;;;5.40;4.90;;;4.00;99.90;;;;;;6288771;28;20579;-68
2022/12/02 01:35:05;;;;;;;5.47;4.97;;;4.10;99.90;;;;;;6289308;28;20292;-69
2022/12/02 01:38:12;;;;;;;5.30;4.90;;;4.10;99.90;;;;;;6289090;28;20272;-69
2022/12/02 01:41:17;;;;;;;5.20;4.70;;;4.00;99.90;;;;;;6289622;28;20286;-69
2022/12/02 01:44:22;;;;;;;4.60;4.30;;;4.10;99.90;;;;;;6288796;28;20305;-68
2022/12/02 01:47:27;;;;;;;4.43;4.10;;;4.10;99.90;;;;;;6289225;28;20266;-69
2022/12/02 01:50:33;;;;;;;4.53;4.23;;;4.10;99.90;;;;;;6288720;28;20298;-69
2022/12/02 01:53:38;;;;;;;4.70;4.30;;;4.00;99.90;;;;;;6288107;28;20306;-69
2022/12/02 01:56:43;;;;;;;4.17;3.87;;;4.00;99.90;;;;;;6287960;28;20271;-69
2022/12/02 01:59:48;;;;;;;4.60;4.30;;;4.00;99.90;;;;;;6287469;28;20599;-69
2022/12/02 02:02:52;;;;;;;4.93;4.43;;;4.00;99.90;;;;;;6289017;28;20290;-69
2022/12/02 02:05:59;;;;;;;4.23;3.97;;;4.00;99.90;;;;;;6288294;28;20290;-69
2022/12/02 02:09:06;;;;;;;4.60;4.30;;;4.00;99.90;;;;;;6287352;28;20303;-69
2022/12/02 02:12:11;;;;;;;4.80;4.47;;;3.90;99.90;;;;;;6279543;28;20274;-69
2022/12/02 02:15:16;;;;;;;3.60;3.40;;;3.90;99.90;;;;;;6263694;28;20304;-69
2022/12/02 02:18:22;;;;;;;3.97;3.77;;;3.90;99.90;;;;;;6263662;28;20300;-69
2022/12/02 02:21:34;;;;;;;4.10;3.90;;;3.90;99.90;;;;;;6262709;28;20287;-69
2022/12/02 02:24:40;;;;;;;4.27;4.07;;;4.00;99.90;;;;;;6262012;28;20532;-69
2022/12/02 02:27:52;;;;;;;4.10;3.80;;;4.00;99.90;;;;;;6262535;28;20271;-69
2022/12/02 02:30:58;;;;;;;3.37;3.17;;;3.90;99.90;;;;;;6263481;28;20302;-68
2022/12/02 02:34:11;;;;;;;3.03;2.93;;;3.90;99.90;;;;;;6261985;28;20454;-69
2022/12/02 02:37:16;;;;;;;3.50;3.40;;;3.90;99.90;;;;;;6263482;28;20268;-68
2022/12/02 02:40:23;;;;;;;4.00;3.30;;;3.90;99.90;;;;;;6261363;28;20300;-69
2022/12/02 02:43:31;;;;;;;3.10;3.00;;;3.90;99.90;;;;;;6261636;28;20304;-69
2022/12/02 02:46:36;;;;;;;3.10;3.00;;;3.90;99.90;;;;;;6278604;28;20275;-68
2022/12/02 02:49:41;;;;;;;3.30;3.20;;;3.90;99.90;;;;;;6278163;28;20324;-69
2022/12/02 02:52:46;;;;;;;2.60;2.50;;;3.90;99.90;;;;;;6262085;28;20279;-69
2022/12/02 02:55:53;;;;;;;2.83;2.73;;;3.80;99.90;;;;;;6262498;28;20297;-69
2022/12/02 02:58:58;;;;;;;2.50;2.40;;;3.80;99.90;;;;;;6277952;28;20295;-68
2022/12/02 03:02:06;;;;;;;2.83;2.73;;;3.80;99.90;;;;;;6277678;28;20299;-69
2022/12/02 03:05:11;;;;;;;2.77;2.67;;;3.90;99.90;;;;;;6261473;28;20291;-69
2022/12/02 03:08:16;;;;;;;2.80;2.70;;;3.90;99.90;;;;;;6277608;28;20302;-69
2022/12/02 03:11:22;;;;;;;2.50;2.50;;;3.90;99.90;;;;;;6271921;28;20265;-69
2022/12/02 03:14:28;;;;;;;2.50;2.30;;;3.90;99.90;;;;;;6286984;28;20314;-69
2022/12/02 03:17:33;;;;;;;2.53;2.43;;;3.90;99.90;;;;;;6287467;28;20279;-69
2022/12/02 03:20:38;;;;;;;2.47;2.30;;;3.90;99.90;;;;;;6286958;28;20295;-69
2022/12/02 03:23:43;;;;;;;2.80;2.70;;;3.90;99.90;;;;;;6286556;28;20313;-69
2022/12/02 03:26:49;;;;;;;2.40;2.40;;;3.80;99.90;;;;;;6287418;28;20265;-68
2022/12/02 03:29:54;;;;;;;2.40;2.40;;;3.80;99.90;;;;;;6286477;28;20311;-68
2022/12/02 03:32:59;;;;;;;2.50;2.30;;;3.70;99.90;;;;;;6286844;28;20271;-69
2022/12/02 03:36:05;;;;;;;3.30;3.10;;;3.70;99.90;;;;;;6286152;28;20539;-69
2022/12/02 03:39:10;;;;;;;2.80;2.70;;;3.70;99.90;;;;;;6285996;28;20294;-69
2022/12/02 03:42:16;;;;;;;2.70;2.50;;;3.70;99.90;;;;;;6287796;28;20291;-69
2022/12/02 03:45:21;;;;;;;2.97;2.80;;;3.70;99.90;;;;;;6310471;28;20305;-69
2022/12/02 03:48:26;;;;;;;2.80;2.70;;;3.70;99.90;;;;;;6310836;28;20297;-68
2022/12/02 03:51:32;;;;;;;2.57;2.40;;;3.80;99.90;;;;;;6311526;28;20276;-69
2022/12/02 03:54:37;;;;;;;2.47;2.40;;;3.80;99.90;;;;;;6310510;28;20594;-68
2022/12/02 03:57:43;;;;;;;2.60;2.60;;;3.70;99.90;;;;;;6311337;28;20288;-69
2022/12/02 04:00:48;;;;;;;2.53;2.50;;;3.70;99.90;;;;;;6310255;28;20305;-70
2022/12/02 04:03:53;;;;;;;2.60;2.50;;;3.70;99.90;;;;;;6298402;28;20490;-68
2022/12/02 04:06:57;;;;;;;2.50;2.50;;;3.70;99.90;;;;;;6298478;28;20264;-69
2022/12/02 04:10:02;;;;;;;2.67;2.57;;;3.70;99.90;;;;;;6287964;28;20555;-69
2022/12/02 04:13:08;;;;;;;2.27;2.20;;;3.70;99.90;;;;;;6310420;28;20609;-69
2022/12/02 04:16:13;;;;;;;2.13;2.07;;;3.60;99.90;;;;;;6310706;28;20573;-70
2022/12/02 04:19:18;;;;;;;2.60;2.50;;;3.60;99.90;;;;;;6283864;28;20461;-70
2022/12/02 04:22:23;;;;;;;2.70;2.60;;;3.60;99.90;;;;;;6285133;28;20294;-69
2022/12/02 04:25:28;;;;;;;2.87;2.77;;;3.60;99.90;;;;;;6285540;28;20562;-69
2022/12/02 04:28:34;;;;;;;2.77;2.67;;;3.70;99.90;;;;;;6285048;28;20305;-69
2022/12/02 04:31:39;;;;;;;2.77;2.57;;;3.80;99.90;;;;;;6285683;28;20290;-69
2022/12/02 04:34:43;;;;;;;2.73;2.63;;;3.70;99.90;;;;;;6285399;28;20298;-69
2022/12/02 04:37:50;;;;;;;3.03;2.93;;;3.80;99.90;;;;;;6305377;28;20300;-69
2022/12/02 04:40:55;;;;;;;2.97;2.77;;;3.80;99.90;;;;;;6310940;28;20265;-69
2022/12/02 04:44:02;;;;;;;3.40;3.23;;;3.70;99.90;;;;;;6310099;28;20303;-68
2022/12/02 04:47:07;;;;;;;3.20;3.07;;;3.80;99.90;;;;;;6309591;28;20268;-67
2022/12/02 04:50:12;;;;;;;3.10;3.00;;;3.80;99.90;;;;;;6310586;28;20267;-69
2022/12/02 04:53:17;;;;;;;2.93;2.73;;;3.80;99.90;;;;;;6310023;28;20294;-69
2022/12/02 04:56:22;;;;;;;3.63;3.33;;;3.80;99.90;;;;;;6310416;28;20263;-69
2022/12/02 04:59:28;;;;;;;3.47;3.27;;;3.70;99.90;;;;;;6309860;28;20306;-68
2022/12/02 05:02:33;;;;;;;3.90;3.70;;;3.80;99.90;;;;;;6309910;28;20305;-68
2022/12/02 05:05:37;;;;;;;3.93;3.67;;;3.80;99.90;;;;;;6310487;28;20266;-68
2022/12/02 05:08:42;;;;;;;4.00;3.70;;;3.80;99.90;;;;;;6310149;28;20297;-68
2022/12/02 05:11:47;;;;;;;5.23;4.70;;;3.90;99.90;;;;;;6290475;28;20568;-69
2022/12/02 05:14:53;;;;;;;5.00;4.60;;;3.90;99.90;;;;;;6284818;28;20465;-68
2022/12/02 05:17:58;;;;;;;4.73;4.33;;;3.90;99.90;;;;;;6284629;28;20305;-68
2022/12/02 05:21:03;;;;;;;5.20;4.67;;;3.90;99.90;;;;;;6284962;28;20269;-67
2022/12/02 05:24:08;;;;;;;6.30;5.30;;;3.90;99.90;;;;;;6284513;28;20298;-70
2022/12/02 05:27:13;;;;;;;6.27;5.63;;;3.90;99.90;;;;;;6284631;28;20319;-69
2022/12/02 05:30:20;;;;;;;8.63;5.87;;;4.00;99.90;;;;;;6289236;28;20267;-69
2022/12/02 05:33:24;;;;;;;6.80;5.97;;;4.00;99.90;;;;;;6289026;28;20307;-69
2022/12/02 05:36:29;;;;;;;6.70;5.87;;;4.00;99.90;;;;;;6289624;28;20263;-69
2022/12/02 05:39:34;;;;;;;7.93;6.87;;;4.00;99.90;;;;;;6289470;28;20298;-68
2022/12/02 05:42:40;;;;;;;10.90;6.43;;;4.00;99.90;;;;;;6288152;28;20543;-68
2022/12/02 05:45:46;;;;;;;12.70;7.67;;;4.00;99.90;;;;;;6289379;28;20462;-69
2022/12/02 05:48:51;;;;;;;10.43;7.63;;;4.00;99.90;;;;;;6288819;28;20292;-68
2022/12/02 05:51:58;;;;;;;10.70;7.70;;;4.10;99.90;;;;;;6289267;28;20274;-68
2022/12/02 05:55:13;;;;;;;9.50;7.70;;;4.10;99.90;;;;;;6288691;28;20560;-69
2022/12/02 05:58:18;;;;;;;14.23;8.67;;;4.10;99.90;;;;;;6289347;28;20317;-69
2022/12/02 06:01:33;;;;;;;11.53;8.47;;;4.20;99.90;;;;;;6289050;28;20267;-68
2022/12/02 06:04:38;;;;;;;13.67;8.97;;;4.10;99.90;;;;;;6288886;28;20302;-69
2022/12/02 06:07:42;;;;;;;11.73;8.37;;;4.20;99.90;;;;;;6288456;28;20318;-69
2022/12/02 06:10:49;;;;;;;12.17;8.37;;;4.10;99.90;;;;;;6300208;28;20260;-69
2022/12/02 06:13:56;;;;;;;10.90;7.80;;;4.20;99.90;;;;;;6313483;28;20298;-69
2022/12/02 06:17:04;;;;;;;9.70;7.97;;;4.10;99.90;;;;;;6313216;28;20266;-69
2022/12/02 06:20:19;;;;;;;11.80;7.90;;;4.20;99.90;;;;;;6313281;28;20272;-69
2022/12/02 06:23:25;;;;;;;11.90;8.27;;;4.20;99.90;;;;;;6313163;28;20298;-69
2022/12/02 06:26:30;;;;;;;10.80;8.00;;;4.20;99.90;;;;;;6313437;28;20271;-69
2022/12/02 06:29:35;;;;;;;10.47;7.97;;;4.10;99.90;;;;;;6312821;28;20301;-69
2022/12/02 06:32:46;;;;;;;11.43;8.30;;;4.10;99.90;;;;;;6312754;28;20590;-69
2022/12/02 06:35:52;;;;;;;12.77;7.83;;;4.10;99.90;;;;;;6313325;28;20270;-69
2022/12/02 06:38:59;;;;;;;12.80;8.00;;;4.10;99.90;;;;;;6312583;28;20303;-70
2022/12/02 06:42:16;;;;;;;10.13;8.00;;;4.10;99.90;;;;;;6312531;28;20509;-69
2022/12/02 06:45:24;;;;;;;11.87;8.20;;;4.10;99.90;;;;;;6263159;28;20291;-69
2022/12/02 06:48:36;;;;;;;12.73;8.50;;;4.20;99.90;;;;;;6262532;28;20295;-70
2022/12/02 06:51:40;;;;;;;10.93;8.00;;;4.20;99.90;;;;;;6263081;28;20276;-69
2022/12/02 06:54:46;;;;;;;13.67;8.73;;;4.20;99.90;;;;;;6262692;28;20303;-69
2022/12/02 06:57:51;;;;;;;14.87;9.80;;;4.20;99.90;;;;;;6262899;28;20284;-69
2022/12/02 07:01:19;;;;;;;15.67;9.17;;;4.20;99.90;;;;;;6263120;28;20273;-69
2022/12/02 07:04:41;;;;;;;15.03;9.40;;;4.20;99.90;;;;;;6262346;28;20318;-69
2022/12/02 07:07:46;;;;;;;17.43;9.40;;;4.20;99.90;;;;;;6262132;28;20307;-69
2022/12/02 07:10:51;;;;;;;15.90;9.77;;;4.10;99.90;;;;;;6274107;28;20453;-68
2022/12/02 07:13:55;;;;;;;14.17;9.70;;;4.10;99.90;;;;;;6286518;28;20317;-68
2022/12/02 07:17:03;;;;;;;18.00;10.10;;;4.10;99.90;;;;;;6286413;28;20270;-68
2022/12/02 07:20:29;;;;;;;15.27;9.43;;;4.20;99.90;;;;;;6287274;28;20273;-68
2022/12/02 07:23:35;;;;;;;17.30;9.73;;;4.20;99.90;;;;;;6286633;28;20374;-70
2022/12/02 07:26:39;;;;;;;16.37;9.40;;;4.20;99.90;;;;;;6286904;28;20274;-68
2022/12/02 07:29:44;;;;;;;14.20;10.07;;;4.20;99.90;;;;;;6286354;28;20291;-69
2022/12/02 07:32:49;;;;;;;18.37;10.37;;;4.20;99.90;;;;;;6286340;28;20296;-68
2022/12/02 07:35:55;;;;;;;14.70;9.70;;;4.20;99.90;;;;;;6287296;28;20270;-67
2022/12/02 07:39:00;;;;;;;16.83;10.37;;;4.30;99.90;;;;;;6286106;28;20300;-68
2022/12/02 07:42:14;;;;;;;18.57;11.10;;;4.30;99.90;;;;;;6286114;28;20542;-67
2022/12/02 07:45:20;;;;;;;17.53;11.03;;;4.30;99.90;;;;;;6286113;28;20306;-67
2022/12/02 07:48:27;;;;;;;16.27;10.83;;;4.30;99.90;;;;;;6268310;28;20318;-67
2022/12/02 07:51:34;;;;;;;15.73;10.33;;;4.30;99.90;;;;;;6284346;28;20279;-66
2022/12/02 07:54:41;;;;;;;17.83;10.33;;;4.30;99.90;;;;;;6268363;28;20304;-69
2022/12/02 07:57:45;;;;;;;18.50;10.93;;;4.30;99.90;;;;;;6285458;28;20294;-68
2022/12/02 08:00:50;;;;;;;18.10;10.67;;;4.30;99.90;;;;;;6286414;28;20269;-69
2022/12/02 08:03:55;;;;;;;19.37;11.83;;;4.40;99.90;;;;;;6285537;28;20314;-69
2022/12/02 08:07:01;;;;;;;17.07;10.53;;;4.30;99.90;;;;;;6285722;28;20266;-70
2022/12/02 08:10:07;;;;;;;18.50;11.07;;;4.40;99.90;;;;;;6285924;28;20260;-69
2022/12/02 08:13:12;;;;;;;16.00;10.63;;;4.40;99.90;;;;;;6285649;28;20296;-69
2022/12/02 08:16:17;;;;;;;19.43;11.50;;;4.30;99.90;;;;;;6285854;28;20274;-69
2022/12/02 08:19:22;;;;;;;24.00;14.10;;;4.30;99.90;;;;;;6285549;28;20308;-68
2022/12/02 08:22:28;;;;;;;22.27;12.63;;;4.40;99.90;;;;;;6285209;28;20310;-68
2022/12/02 08:25:33;;;;;;;21.17;11.73;;;4.30;99.90;;;;;;6285683;28;20291;-68
2022/12/02 08:28:38;;;;;;;18.53;10.40;;;4.40;99.90;;;;;;6285331;28;20303;-68
2022/12/02 08:31:43;;;;;;;20.00;11.57;;;4.40;99.90;;;;;;6285951;28;20270;-69
2022/12/02 08:34:48;;;;;;;18.13;11.40;;;4.40;99.90;;;;;;6285500;28;20591;-68
2022/12/02 08:37:55;;;;;;;22.07;11.60;;;4.40;99.90;;;;;;6285044;28;20306;-70
2022/12/02 08:40:59;;;;;;;19.80;11.30;;;4.50;99.90;;;;;;6285329;28;20274;-68
2022/12/02 08:44:05;;;;;;;14.50;10.50;;;4.50;99.90;;;;;;6298986;28;20306;-68
2022/12/02 08:47:12;;;;;;;19.47;10.67;;;4.40;99.90;;;;;;6309958;28;20278;-69
2022/12/02 08:50:17;;;;;;;17.20;10.90;;;4.40;99.90;;;;;;6310717;28;20352;-68
2022/12/02 08:53:23;;;;;;;21.93;12.50;;;4.40;99.90;;;;;;6309699;28;20587;-68
2022/12/02 08:56:28;;;;;;;21.27;12.57;;;4.40;99.90;;;;;;6309951;28;20271;-69
2022/12/02 08:59:33;;;;;;;26.17;14.03;;;4.40;99.90;;;;;;6309106;28;20291;-68
2022/12/02 09:02:38;;;;;;;22.77;13.23;;;4.40;99.90;;;;;;6310536;28;20289;-69
2022/12/02 09:05:43;;;;;;;25.87;14.00;;;4.50;99.90;;;;;;6314921;28;20290;-69
2022/12/02 09:08:49;;;;;;;17.03;11.37;;;4.50;99.90;;;;;;6314584;28;20614;-69
2022/12/02 09:11:54;;;;;;;19.40;12.57;;;4.50;99.90;;;;;;6294730;28;20269;-68
2022/12/02 09:14:59;;;;;;;18.10;11.70;;;4.50;99.90;;;;;;6289477;28;20609;-68
2022/12/02 09:18:03;;;;;;;20.20;11.43;;;4.50;99.90;;;;;;6289747;28;20300;-68
2022/12/02 09:21:14;;;;;;;19.70;12.23;;;4.40;99.90;;;;;;6289836;28;20270;-69
2022/12/02 09:24:20;;;;;;;15.27;10.80;;;4.60;99.90;;;;;;6289141;28;20312;-69
2022/12/02 09:27:25;;;;;;;17.33;11.20;;;4.50;99.90;;;;;;6289181;28;20306;-69
2022/12/02 09:30:30;;;;;;;21.40;11.33;;;4.50;99.90;;;;;;6289758;28;20267;-68
2022/12/02 09:33:35;;;;;;;17.47;10.50;;;4.50;99.90;;;;;;6289066;28;20318;-68
2022/12/02 09:36:39;;;;;;;18.50;10.97;;;4.40;99.90;;;;;;6289842;28;20271;-68
2022/12/02 09:39:47;;;;;;;20.07;11.27;;;4.50;99.90;;;;;;6289107;28;20291;-68
2022/12/02 09:42:52;;;;;;;17.10;11.30;;;4.50;99.90;;;;;;6293083;28;20303;-69
2022/12/02 09:45:57;;;;;;;21.53;11.40;;;4.50;99.90;;;;;;6314748;28;20283;-69
2022/12/02 09:49:02;;;;;;;43.00;21.13;;;4.50;99.90;;;;;;6314180;28;20589;-68
2022/12/02 09:52:14;;;;;;;20.30;13.40;;;4.50;99.90;;;;;;6313438;28;20464;-68
2022/12/02 09:55:20;;;;;;;10.33;8.10;;;4.60;99.90;;;;;;6314290;28;20277;-69
2022/12/02 09:58:27;;;;;;;16.27;10.93;;;4.50;99.90;;;;;;6313515;28;20294;-69
2022/12/02 10:01:31;;;;;;;16.83;10.37;;;4.40;99.90;;;;;;6313996;28;20512;-68
2022/12/02 10:04:36;;;;;;;16.20;8.67;;;4.40;99.90;;;;;;6313383;28;20298;-68
2022/12/02 10:07:41;;;;;;;15.20;9.67;;;4.40;99.90;;;;;;6313154;28;20303;-69
2022/12/02 10:10:48;;;;;;;16.03;8.83;;;4.40;99.90;;;;;;6302247;28;20264;-68
2022/12/02 10:13:53;;;;;;;10.67;8.30;;;4.40;99.90;;;;;;6288297;28;20316;-68
2022/12/02 10:16:58;;;;;;;10.40;7.67;;;4.40;99.90;;;;;;6289013;28;20287;-68
2022/12/02 10:20:03;;;;;;;12.00;7.83;;;4.50;99.90;;;;;;6287578;28;20286;-69
2022/12/02 10:23:14;;;;;;;9.87;6.50;;;4.50;99.90;;;;;;6288040;28;20302;-69
2022/12/02 10:26:21;;;;;;;10.77;6.57;;;4.50;99.90;;;;;;6288397;28;20297;-69
2022/12/02 10:29:28;;;;;;;9.10;6.23;;;4.40;99.90;;;;;;6287985;28;20296;-69
2022/12/02 10:32:33;;;;;;;9.63;6.33;;;4.40;99.90;;;;;;6288162;28;20315;-68
2022/12/02 10:35:45;;;;;;;7.43;5.87;;;4.30;99.90;;;;;;6288944;28;20284;-68
2022/12/02 10:38:50;;;;;;;8.70;6.20;;;4.30;99.90;;;;;;6288286;28;20291;-69
2022/12/02 10:42:20;;;;;;;6.83;5.73;;;4.30;99.90;;;;;;6287985;28;20264;-69
2022/12/02 10:45:25;;;;;;;7.50;5.90;;;4.30;99.90;;;;;;6311467;28;20569;-69
2022/12/02 10:48:30;;;;;;;13.37;8.20;;;4.30;99.90;;;;;;6312730;28;20424;-69
2022/12/02 10:51:34;;;;;;;6.47;5.57;;;4.40;99.90;;;;;;6312458;28;20268;-69
2022/12/02 10:54:44;;;;;;;7.57;6.10;;;4.40;99.90;;;;;;6312350;28;20309;-70
2022/12/02 10:57:50;;;;;;;7.23;5.57;;;4.40;99.90;;;;;;6311758;28;20494;-69
2022/12/02 11:00:55;;;;;;;8.50;5.57;;;4.30;99.90;;;;;;6312682;28;20264;-69
2022/12/02 11:04:00;;;;;;;6.07;5.47;;;4.30;99.90;;;;;;6312223;28;20292;-68
2022/12/02 11:07:05;;;;;;;10.13;8.63;;;4.30;99.90;;;;;;6311892;28;20375;-69
2022/12/02 11:10:20;;;;;;;7.23;5.97;;;4.30;99.90;;;;;;6306358;28;20259;-69
2022/12/02 11:13:52;;;;;;;5.97;5.37;;;4.30;99.90;;;;;;6286723;28;20602;-69
2022/12/02 11:17:07;;;;;;;8.80;5.50;;;4.30;99.90;;;;;;6287528;28;20276;-68
2022/12/02 11:20:35;;;;;;;5.23;4.83;;;4.30;99.90;;;;;;6286202;28;20272;-69
2022/12/02 11:23:40;;;;;;;6.53;5.00;;;4.20;99.90;;;;;;6286557;28;20302;-69
2022/12/02 11:27:10;;;;;;;5.33;4.67;;;4.20;99.90;;;;;;6286399;28;20284;-70
2022/12/02 11:30:39;;;;;;;5.03;4.63;;;4.20;99.90;;;;;;6285914;28;20292;-68
2022/12/02 11:34:05;;;;;;;6.83;4.90;;;4.20;99.90;;;;;;6286728;28;20311;-69
2022/12/02 11:37:43;;;;;;;6.00;5.50;;;4.20;99.90;;;;;;6286179;28;20278;-69
2022/12/02 11:41:03;;;;;;;5.83;4.73;;;4.20;99.90;;;;;;6282080;28;20271;-69
2022/12/02 11:44:10;;;;;;;5.37;4.83;;;4.20;99.90;;;;;;6286303;28;20308;-70
2022/12/02 11:47:30;;;;;;;5.37;4.73;;;4.10;99.90;;;;;;6285657;28;20287;-68
2022/12/02 11:50:39;;;;;;;6.40;4.70;;;4.10;99.90;;;;;;6286539;28;20570;-69
2022/12/02 11:53:51;;;;;;;7.77;5.10;;;4.20;99.90;;;;;;6285767;28;20300;-69
2022/12/02 11:56:56;;;;;;;7.17;4.93;;;4.20;99.90;;;;;;6286707;28;20273;-69
2022/12/02 12:00:03;;;;;;;8.60;5.27;;;4.10;99.90;;;;;;6285716;28;20573;-69
2022/12/02 12:03:18;;;;;;;5.37;4.90;;;4.20;99.90;;;;;;6285968;28;20327;-69
2022/12/02 12:06:27;;;;;;;4.63;4.23;;;4.20;99.90;;;;;;6286093;28;20267;-69
2022/12/02 12:09:31;;;;;;;6.80;4.57;;;4.20;99.90;;;;;;6287201;28;20616;-68
2022/12/02 12:12:36;;;;;;;10.53;5.30;;;4.20;99.90;;;;;;6335433;28;20294;-69
2022/12/02 12:16:02;;;;;;;5.23;4.73;;;4.10;99.90;;;;;;6336194;28;20269;-68
2022/12/02 12:19:29;;;;;;;5.37;4.60;;;4.20;99.90;;;;;;6335661;28;20305;-69
2022/12/02 12:22:33;;;;;;;8.90;4.90;;;4.20;99.90;;;;;;6334956;28;20338;-68
2022/12/02 12:25:44;;;;;;;5.33;4.80;;;4.20;99.90;;;;;;6335809;28;20262;-69
2022/12/02 12:28:49;;;;;;;5.13;4.63;;;4.30;99.90;;;;;;6335251;28;20303;-69
2022/12/02 12:31:54;;;;;;;5.90;4.70;;;4.30;99.90;;;;;;6336041;28;20275;-68
2022/12/02 12:35:00;;;;;;;5.23;4.37;;;4.30;99.90;;;;;;6335442;28;20295;-69
2022/12/02 12:38:05;;;;;;;6.27;4.67;;;4.30;99.90;;;;;;6334906;28;20475;-69
2022/12/02 12:41:10;;;;;;;5.43;4.57;;;4.30;99.90;;;;;;6336307;28;20355;-69
2022/12/02 12:44:14;;;;;;;8.63;6.20;;;4.20;99.90;;;;;;6335612;28;20303;-69
2022/12/02 12:47:19;;;;;;;10.43;8.13;;;4.30;99.90;;;;;;6335014;28;20483;-69
2022/12/02 12:50:28;;;;;;;14.97;9.03;;;4.30;99.90;;;;;;6336018;28;20564;-69
2022/12/02 12:53:33;;;;;;;10.03;7.70;;;4.20;99.90;;;;;;6335405;28;20300;-69
2022/12/02 12:56:38;;;;;;;10.87;8.23;;;4.10;99.90;;;;;;6335785;28;20262;-70
2022/12/02 12:59:43;;;;;;;12.30;8.33;;;4.10;99.90;;;;;;6335272;28;20295;-68
2022/12/02 13:02:48;;;;;;;15.77;9.00;;;4.10;99.90;;;;;;6334942;28;20286;-69
2022/12/02 13:05:54;;;;;;;18.27;10.23;;;4.00;99.90;;;;;;6335608;28;20266;-69
2022/12/02 13:08:59;;;;;;;22.60;12.00;;;4.10;99.90;;;;;;6334667;28;20314;-68
2022/12/02 13:12:04;;;;;;;18.63;11.90;;;4.00;99.90;;;;;;6291333;28;20264;-69
2022/12/02 13:15:16;;;;;;;12.23;8.77;;;4.10;99.90;;;;;;6309656;28;20265;-69
2022/12/02 13:18:21;;;;;;;12.00;9.03;;;4.00;99.90;;;;;;6309700;28;20302;-69
2022/12/02 13:21:27;;;;;;;12.93;9.13;;;4.00;99.90;;;;;;6292530;28;20273;-70
2022/12/02 13:24:32;;;;;;;15.30;9.17;;;4.00;99.90;;;;;;6309494;28;20299;-70
2022/12/02 13:27:44;;;;;;;11.97;8.90;;;4.00;99.90;;;;;;6309124;28;20302;-69
2022/12/02 13:30:50;;;;;;;16.77;8.80;;;3.90;99.90;;;;;;6310122;28;20267;-69
2022/12/02 13:33:56;;;;;;;15.30;9.10;;;3.90;99.90;;;;;;6309380;28;20300;-68
2022/12/02 13:37:02;;;;;;;15.20;8.50;;;3.90;99.90;;;;;;6309120;28;20312;-68
2022/12/02 13:40:09;;;;;;;14.00;9.00;;;3.90;99.90;;;;;;6310142;28;20274;-69
2022/12/02 13:43:14;;;;;;;16.50;9.60;;;3.90;99.90;;;;;;6309208;28;20304;-69
2022/12/02 13:46:19;;;;;;;11.53;9.17;;;3.80;99.90;;;;;;6309600;28;20437;-68
2022/12/02 13:49:24;;;;;;;11.97;8.40;;;3.80;99.90;;;;;;6311180;28;20303;-69
2022/12/02 13:52:30;;;;;;;16.77;10.33;;;3.80;99.90;;;;;;6314027;28;20451;-70
2022/12/02 13:55:35;;;;;;;16.13;8.80;;;3.70;99.90;;;;;;6296490;28;20264;-69
2022/12/02 13:58:40;;;;;;;14.97;9.20;;;3.60;99.90;;;;;;6313820;28;20298;-69
2022/12/02 14:01:45;;;;;;;14.10;9.07;;;3.60;99.90;;;;;;6314096;28;20274;-70
2022/12/02 14:04:49;;;;;;;13.77;9.60;;;3.70;99.90;;;;;;6296174;28;20320;-68
2022/12/02 14:07:56;;;;;;;10.63;7.87;;;3.70;99.90;;;;;;6313619;28;20297;-69
2022/12/02 14:11:01;;;;;;;12.90;9.07;;;3.60;99.90;;;;;;6327057;28;20439;-68
2022/12/02 14:14:05;;;;;;;11.27;8.77;;;3.50;99.90;;;;;;6338336;28;20304;-69
2022/12/02 14:17:10;;;;;;;14.40;8.27;;;3.40;99.90;;;;;;6338474;28;20273;-69
2022/12/02 14:20:15;;;;;;;13.70;9.07;;;3.40;99.90;;;;;;6338570;28;20277;-69
2022/12/02 14:23:21;;;;;;;11.13;8.90;;;3.40;99.90;;;;;;6338489;28;20296;-69
2022/12/02 14:26:26;;;;;;;14.03;9.30;;;3.50;99.90;;;;;;6339150;28;20265;-69
2022/12/02 14:29:31;;;;;;;13.30;8.80;;;3.50;99.90;;;;;;6338035;28;20384;-69
2022/12/02 14:32:36;;;;;;;14.70;9.23;;;3.50;99.90;;;;;;6319817;28;20292;-70
2022/12/02 14:35:42;;;;;;;13.43;8.80;;;3.30;99.90;;;;;;6338713;28;20271;-69
2022/12/02 14:38:48;;;;;;;16.73;9.80;;;3.40;99.90;;;;;;6337457;28;20317;-68
2022/12/02 14:41:53;;;;;;;15.57;9.67;;;3.40;99.90;;;;;;6338163;28;20274;-68
2022/12/02 14:44:58;;;;;;;14.20;9.50;;;3.40;99.90;;;;;;6337446;28;20240;-69
2022/12/02 14:48:04;;;;;;;15.90;9.17;;;3.30;99.90;;;;;;6337248;28;20300;-69
2022/12/02 14:51:11;;;;;;;14.33;8.90;;;3.30;99.90;;;;;;6338263;28;20273;-69
2022/12/02 14:54:17;;;;;;;19.63;9.10;;;3.30;99.90;;;;;;6337854;28;20293;-68
2022/12/02 14:57:21;;;;;;;12.60;9.17;;;3.20;99.90;;;;;;6337340;28;20297;-69
2022/12/02 15:00:26;;;;;;;15.27;9.77;;;3.20;99.90;;;;;;6337507;28;20270;-69
2022/12/02 15:03:31;;;;;;;17.67;8.80;;;3.20;99.90;;;;;;6336849;28;20296;-68
2022/12/02 15:06:36;;;;;;;14.10;9.60;;;3.20;99.90;;;;;;6337861;28;20264;-68
2022/12/02 15:09:42;;;;;;;14.93;9.77;;;3.10;99.90;;;;;;6335165;28;20303;-69
2022/12/02 15:12:46;;;;;;;14.37;9.20;;;3.10;99.90;;;;;;6311927;28;20481;-68
2022/12/02 15:15:51;;;;;;;17.00;10.27;;;3.10;99.90;;;;;;6311981;28;20574;-68
2022/12/02 15:19:04;;;;;;;32.57;16.53;;;3.10;99.90;;;;;;6311423;28;20304;-67
2022/12/02 15:22:09;;;;;;;15.37;10.03;;;3.20;99.90;;;;;;6311650;28;20269;-69
2022/12/02 15:25:16;;;;;;;21.20;11.27;;;3.20;99.90;;;;;;6312131;28;20306;-69
2022/12/02 15:28:21;;;;;;;16.40;11.03;;;3.20;99.90;;;;;;6311299;28;20290;-69
2022/12/02 15:31:25;;;;;;;17.43;10.60;;;3.20;99.90;;;;;;6311283;28;20274;-70
2022/12/02 15:34:30;;;;;;;12.50;9.20;;;3.20;99.90;;;;;;6310766;28;20306;-69
2022/12/02 15:37:35;;;;;;;17.47;9.43;;;3.20;99.90;;;;;;6311310;28;20296;-69
2022/12/02 15:40:41;;;;;;;21.40;11.53;;;3.10;99.90;;;;;;6311837;28;20278;-69
2022/12/02 15:43:46;;;;;;;19.93;11.77;;;3.00;99.90;;;;;;6310918;28;20601;-69
2022/12/02 15:46:57;;;;;;;16.73;9.77;;;3.00;99.90;;;;;;6311081;28;20270;-69
2022/12/02 15:50:02;;;;;;;21.20;10.77;;;3.00;99.90;;;;;;6310435;28;20293;-68
2022/12/02 15:53:07;;;;;;;19.50;10.93;;;3.10;99.90;;;;;;6310828;28;20376;-69
2022/12/02 15:56:13;;;;;;;19.20;11.03;;;3.10;99.90;;;;;;6311517;28;20273;-68
2022/12/02 15:59:18;;;;;;;17.23;11.23;;;3.10;99.90;;;;;;6310984;28;20317;-69
2022/12/02 16:02:23;;;;;;;18.67;10.90;;;3.10;99.90;;;;;;6310337;28;20293;-69
2022/12/02 16:05:28;;;;;;;15.50;10.37;;;3.00;99.90;;;;;;6311564;28;20271;-69
2022/12/02 16:08:33;;;;;;;18.20;10.87;;;3.00;99.90;;;;;;6310390;28;20505;-69
2022/12/02 16:11:39;;;;;;;18.07;11.07;;;3.00;99.90;;;;;;6329059;28;20288;-69
2022/12/02 16:14:44;;;;;;;19.13;10.50;;;3.00;99.90;;;;;;6335719;28;20589;-68
2022/12/02 16:17:54;;;;;;;21.13;10.73;;;3.00;99.90;;;;;;6335637;28;20298;-68
2022/12/02 16:20:58;;;;;;;21.77;11.13;;;3.00;99.90;;;;;;6336066;28;20269;-69